Time;durP1;ratioP1;P1;durP2;ratioP2;P2;SDS_P1;SDS_P2;PMS_P1;PMS_P2;Temp;Humidity;BMP_temperature;BMP_pressure;BME280_temperature;BME280_humidity;BME280_pressure;Samples;Min_cycle;Max_cycle;Signal;HPM_P1;HPM_P2
2022/10/31 00:00:05;;;;;;;0.03;0.03;;;;;;;;;;5059015;28;20483;-80
2022/10/31 00:02:31;;;;;;;0.00;0.00;;;;;;;;;;5076492;28;20412;-80
2022/10/31 00:04:57;;;;;;;0.30;0.10;;;;;;;;;;5076879;28;20070;-80
2022/10/31 00:07:24;;;;;;;0.00;0.00;;;;;;;;;;5076670;28;20104;-80
2022/10/31 00:09:50;;;;;;;0.00;0.00;;;;;;;;;;5076395;28;20312;-78
2022/10/31 00:12:16;;;;;;;0.00;0.00;;;;;;;;;;5076290;28;20093;-78
2022/10/31 00:14:43;;;;;;;0.00;0.00;;;;;;;;;;5076122;28;20363;-78
2022/10/31 00:17:09;;;;;;;0.00;0.00;;;;;;;;;;5057683;28;20016;-78
2022/10/31 00:19:35;;;;;;;0.00;0.00;;;;;;;;;;5075921;28;20028;-79
2022/10/31 00:22:02;;;;;;;0.00;0.00;;;;;;;;;;5057546;28;20025;-80
2022/10/31 00:24:28;;;;;;;0.00;0.00;;;;;;;;;;5089420;28;20535;-79
2022/10/31 00:26:54;;;;;;;0.00;0.00;;;;;;;;;;5051537;28;20033;-79
2022/10/31 00:29:20;;;;;;;0.00;0.00;;;;;;;;;;5089197;28;20066;-79
2022/10/31 00:31:47;;;;;;;0.00;0.00;;;;;;;;;;5095803;28;20050;-79
2022/10/31 00:34:13;;;;;;;0.00;0.00;;;;;;;;;;5076641;28;20028;-79
2022/10/31 00:36:39;;;;;;;0.00;0.00;;;;;;;;;;5080515;28;20029;-78
2022/10/31 00:39:06;;;;;;;0.20;0.20;;;;;;;;;;5098340;28;20025;-79
2022/10/31 00:41:32;;;;;;;0.00;0.00;;;;;;;;;;5097859;28;20012;-78
2022/10/31 00:43:58;;;;;;;0.00;0.00;;;;;;;;;;5082207;28;20025;-79
2022/10/31 00:46:25;;;;;;;0.00;0.00;;;;;;;;;;5061346;28;20021;-79
2022/10/31 00:48:51;;;;;;;0.00;0.00;;;;;;;;;;5060547;28;20029;-79
2022/10/31 00:51:17;;;;;;;0.08;0.08;;;;;;;;;;5091286;28;20029;-79
2022/10/31 00:53:44;;;;;;;0.00;0.00;;;;;;;;;;5075475;28;20405;-80
2022/10/31 00:56:10;;;;;;;0.00;0.00;;;;;;;;;;5057566;28;20051;-79
2022/10/31 00:58:37;;;;;;;0.00;0.00;;;;;;;;;;5057611;28;20073;-79
2022/10/31 01:01:03;;;;;;;0.00;0.00;;;;;;;;;;5075632;28;20028;-79
2022/10/31 01:03:31;;;;;;;0.00;0.00;;;;;;;;;;5075284;28;20100;-79
2022/10/31 01:06:02;;;;;;;0.00;0.00;;;;;;;;;;5075310;28;20016;-79
2022/10/31 01:08:29;;;;;;;1.10;1.10;;;;;;;;;;5057123;28;20025;-77
2022/10/31 01:11:07;;;;;;;0.00;0.00;;;;;;;;;;5075241;28;20032;-78
2022/10/31 01:13:34;;;;;;;0.00;0.00;;;;;;;;;;5074444;28;20412;-78
2022/10/31 01:16:01;;;;;;;0.00;0.00;;;;;;;;;;5073242;28;20056;-78
2022/10/31 01:18:27;;;;;;;0.00;0.00;;;;;;;;;;5075192;28;20197;-79
2022/10/31 01:21:05;;;;;;;0.00;0.00;;;;;;;;;;5095741;28;20032;-79
2022/10/31 01:23:32;;;;;;;0.00;0.00;;;;;;;;;;5081853;28;20454;-79
2022/10/31 01:26:03;;;;;;;0.00;0.00;;;;;;;;;;5068170;28;20028;-79
2022/10/31 01:28:29;;;;;;;0.00;0.00;;;;;;;;;;5074090;28;20051;-78
2022/10/31 01:30:56;;;;;;;0.00;0.00;;;;;;;;;;5055522;28;20047;-79
2022/10/31 01:33:22;;;;;;;0.00;0.00;;;;;;;;;;5074707;28;20043;-79
2022/10/31 01:35:48;;;;;;;0.10;0.10;;;;;;;;;;5073984;28;20462;-79
2022/10/31 01:38:15;;;;;;;0.98;0.98;;;;;;;;;;5056297;28;20032;-79
2022/10/31 01:40:41;;;;;;;1.05;0.50;;;;;;;;;;5055407;28;20032;-78
2022/10/31 01:43:12;;;;;;;0.98;0.47;;;;;;;;;;5074619;28;20031;-79
2022/10/31 01:45:38;;;;;;;0.98;0.90;;;;;;;;;;5074236;28;20029;-79
2022/10/31 01:48:05;;;;;;;0.10;0.10;;;;;;;;;;5058116;28;20271;-79
2022/10/31 01:50:34;;;;;;;0.00;0.00;;;;;;;;;;5062061;28;20029;-79
2022/10/31 01:53:01;;;;;;;1.73;1.73;;;;;;;;;;5060346;28;20024;-79
2022/10/31 01:55:30;;;;;;;0.00;0.00;;;;;;;;;;5076440;28;20029;-79
2022/10/31 01:57:59;;;;;;;0.00;0.00;;;;;;;;;;5072167;28;20029;-79
2022/10/31 02:00:25;;;;;;;0.00;0.00;;;;;;;;;;5073436;28;20062;-80
2022/10/31 02:02:51;;;;;;;0.00;0.00;;;;;;;;;;5076568;28;20092;-80
2022/10/31 02:05:20;;;;;;;0.30;0.28;;;;;;;;;;5093884;28;20089;-80
2022/10/31 02:07:52;;;;;;;0.70;0.70;;;;;;;;;;5093857;28;20028;-80
2022/10/31 02:10:19;;;;;;;1.48;0.47;;;;;;;;;;5094024;28;20081;-79
2022/10/31 02:12:46;;;;;;;0.00;0.00;;;;;;;;;;5077148;28;20039;-79
2022/10/31 02:15:13;;;;;;;0.22;0.22;;;;;;;;;;5075140;28;20028;-79
2022/10/31 02:17:39;;;;;;;5.57;1.40;;;;;;;;;;5077181;28;20069;-79
2022/10/31 02:20:11;;;;;;;5.15;2.53;;;;;;;;;;5061714;28;20055;-79
2022/10/31 02:22:43;;;;;;;0.00;0.00;;;;;;;;;;5078497;28;20415;-79
2022/10/31 02:25:16;;;;;;;1.30;1.13;;;;;;;;;;5073078;28;20032;-79
2022/10/31 02:28:00;;;;;;;4.22;3.55;;;;;;;;;;5055395;28;20132;-82
2022/10/31 02:30:38;;;;;;;1.98;1.80;;;;;;;;;;5062440;28;20064;-80
2022/10/31 02:33:09;;;;;;;0.25;0.25;;;;;;;;;;5079486;28;20035;-79
2022/10/31 02:35:38;;;;;;;0.30;0.30;;;;;;;;;;5077662;28;20039;-80
2022/10/31 02:38:13;;;;;;;0.00;0.00;;;;;;;;;;5055884;28;20024;-78
2022/10/31 02:40:47;;;;;;;0.00;0.00;;;;;;;;;;5074389;28;20060;-76
2022/10/31 02:43:17;;;;;;;0.00;0.00;;;;;;;;;;5069658;28;20025;-78
2022/10/31 02:45:46;;;;;;;0.00;0.00;;;;;;;;;;5064968;28;20074;-81
2022/10/31 02:48:19;;;;;;;0.00;0.00;;;;;;;;;;5068915;28;20040;-78
2022/10/31 02:50:49;;;;;;;0.00;0.00;;;;;;;;;;5080926;28;20037;-81
2022/10/31 02:53:16;;;;;;;0.00;0.00;;;;;;;;;;5089375;28;20031;-81
2022/10/31 02:55:49;;;;;;;0.05;0.05;;;;;;;;;;5057614;28;20036;-80
2022/10/31 02:58:17;;;;;;;0.00;0.00;;;;;;;;;;5078199;28;20024;-81
2022/10/31 03:00:46;;;;;;;0.00;0.00;;;;;;;;;;5076500;28;20125;-81
2022/10/31 03:03:12;;;;;;;0.00;0.00;;;;;;;;;;5091427;28;20029;-83
2022/10/31 03:05:55;;;;;;;0.00;0.00;;;;;;;;;;5077095;28;20044;-80
2022/10/31 03:08:42;;;;;;;0.00;0.00;;;;;;;;;;5073001;28;20112;-81
2022/10/31 03:11:09;;;;;;;0.00;0.00;;;;;;;;;;5052113;28;20052;-81
2022/10/31 03:13:35;;;;;;;0.00;0.00;;;;;;;;;;5069530;28;20036;-79
2022/10/31 03:16:09;;;;;;;0.00;0.00;;;;;;;;;;5053736;28;20048;-81
2022/10/31 03:18:38;;;;;;;0.00;0.00;;;;;;;;;;5053619;28;20016;-81
2022/10/31 03:21:23;;;;;;;0.00;0.00;;;;;;;;;;5070782;28;20017;-79
2022/10/31 03:23:51;;;;;;;0.65;0.65;;;;;;;;;;5053005;28;20016;-79
2022/10/31 03:26:18;;;;;;;0.00;0.00;;;;;;;;;;5072556;28;20032;-77
2022/10/31 03:28:46;;;;;;;0.00;0.00;;;;;;;;;;5052443;28;20028;-80
2022/10/31 03:31:16;;;;;;;0.00;0.00;;;;;;;;;;5069953;28;20414;-80
2022/10/31 03:33:43;;;;;;;0.00;0.00;;;;;;;;;;5051604;28;20111;-80
2022/10/31 03:36:11;;;;;;;0.00;0.00;;;;;;;;;;5074114;28;20025;-81
2022/10/31 03:38:37;;;;;;;0.32;0.32;;;;;;;;;;5071946;28;20091;-80
2022/10/31 03:41:06;;;;;;;0.20;0.20;;;;;;;;;;5078829;28;20037;-81
2022/10/31 03:43:36;;;;;;;0.00;0.00;;;;;;;;;;5088814;28;20080;-81
2022/10/31 03:46:02;;;;;;;0.10;0.10;;;;;;;;;;5061393;28;20037;-79
2022/10/31 03:48:29;;;;;;;0.00;0.00;;;;;;;;;;5070607;28;20036;-80
2022/10/31 03:51:02;;;;;;;0.00;0.00;;;;;;;;;;5070702;28;20025;-81
2022/10/31 03:53:32;;;;;;;14.45;13.00;;;;;;;;;;5070007;28;20029;-82
2022/10/31 03:56:01;;;;;;;0.00;0.00;;;;;;;;;;5050179;28;20101;-80
2022/10/31 03:58:31;;;;;;;0.00;0.00;;;;;;;;;;5061894;28;20029;-81
2022/10/31 04:00:58;;;;;;;0.00;0.00;;;;;;;;;;5049844;28;20141;-82
2022/10/31 04:03:29;;;;;;;0.00;0.00;;;;;;;;;;5061923;28;20032;-78
2022/10/31 04:05:58;;;;;;;0.00;0.00;;;;;;;;;;5067944;28;20130;-82
2022/10/31 04:08:27;;;;;;;0.00;0.00;;;;;;;;;;5052016;28;20102;-80
2022/10/31 04:10:55;;;;;;;0.00;0.00;;;;;;;;;;5075376;28;20059;-79
2022/10/31 04:13:29;;;;;;;0.00;0.00;;;;;;;;;;5059289;28;20024;-78
2022/10/31 04:15:55;;;;;;;0.00;0.00;;;;;;;;;;5057916;28;20020;-80
2022/10/31 04:18:25;;;;;;;0.00;0.00;;;;;;;;;;5057825;28;20390;-79
2022/10/31 04:21:00;;;;;;;2.38;2.28;;;;;;;;;;5082794;28;20108;-79
2022/10/31 04:23:27;;;;;;;0.00;0.00;;;;;;;;;;5057939;28;20377;-79
2022/10/31 04:25:53;;;;;;;0.20;0.20;;;;;;;;;;5072757;28;20032;-78
2022/10/31 04:28:20;;;;;;;0.00;0.00;;;;;;;;;;5076243;28;20052;-77
2022/10/31 04:30:47;;;;;;;1.15;1.15;;;;;;;;;;5064574;28;20024;-79
2022/10/31 04:33:13;;;;;;;0.60;0.60;;;;;;;;;;5067356;28;20035;-79
2022/10/31 04:35:40;;;;;;;1.55;0.93;;;;;;;;;;5069564;28;20021;-78
2022/10/31 04:38:07;;;;;;;0.10;0.08;;;;;;;;;;5055539;28;20032;-79
2022/10/31 04:40:33;;;;;;;2.47;1.63;;;;;;;;;;5052636;28;20124;-78
2022/10/31 04:42:59;;;;;;;0.20;0.20;;;;;;;;;;5053780;28;20024;-78
2022/10/31 04:45:26;;;;;;;0.28;0.28;;;;;;;;;;5056201;28;20020;-81
2022/10/31 04:47:53;;;;;;;1.48;0.50;;;;;;;;;;5079860;28;20024;-79
2022/10/31 04:50:19;;;;;;;0.68;0.65;;;;;;;;;;5085278;28;20099;-81
2022/10/31 04:52:47;;;;;;;0.80;0.57;;;;;;;;;;5073635;28;20068;-78
2022/10/31 04:55:13;;;;;;;0.00;0.00;;;;;;;;;;5054918;28;20036;-79
2022/10/31 04:57:47;;;;;;;0.50;0.50;;;;;;;;;;5066014;28;20390;-78
2022/10/31 05:00:14;;;;;;;0.00;0.00;;;;;;;;;;5074085;28;20017;-79
2022/10/31 05:02:44;;;;;;;0.00;0.00;;;;;;;;;;5053325;28;20031;-80
2022/10/31 05:05:11;;;;;;;1.90;1.08;;;;;;;;;;5053613;28;20028;-79
2022/10/31 05:07:41;;;;;;;0.47;0.47;;;;;;;;;;5071537;28;20097;-79
2022/10/31 05:10:09;;;;;;;0.55;0.10;;;;;;;;;;5069118;28;21393;-80
2022/10/31 05:12:36;;;;;;;1.23;1.13;;;;;;;;;;5072878;28;20127;-79
2022/10/31 05:15:02;;;;;;;2.65;1.20;;;;;;;;;;5071003;28;20107;-82
2022/10/31 05:17:28;;;;;;;0.00;0.00;;;;;;;;;;5093679;28;20036;-81
2022/10/31 05:19:55;;;;;;;0.52;0.52;;;;;;;;;;5074107;28;20016;-82
2022/10/31 05:22:21;;;;;;;2.38;1.35;;;;;;;;;;5078142;28;20150;-81
2022/10/31 05:24:47;;;;;;;0.95;0.73;;;;;;;;;;5073600;28;20111;-81
2022/10/31 05:27:14;;;;;;;1.90;1.13;;;;;;;;;;5070359;28;20017;-81
2022/10/31 05:29:40;;;;;;;8.30;4.45;;;;;;;;;;5075064;28;20016;-81
2022/10/31 05:32:06;;;;;;;5.53;1.10;;;;;;;;;;5081674;28;20032;-82
2022/10/31 05:34:33;;;;;;;2.15;0.70;;;;;;;;;;5058067;28;20025;-80
2022/10/31 05:36:59;;;;;;;0.43;0.30;;;;;;;;;;5071135;28;20050;-80
2022/10/31 05:39:25;;;;;;;5.93;1.95;;;;;;;;;;5065454;28;20025;-80
2022/10/31 05:41:52;;;;;;;0.73;0.73;;;;;;;;;;5056554;28;20020;-81
2022/10/31 05:44:18;;;;;;;0.00;0.00;;;;;;;;;;5070395;28;20021;-80
2022/10/31 05:46:44;;;;;;;1.13;0.45;;;;;;;;;;5055893;28;20040;-80
2022/10/31 05:49:10;;;;;;;8.45;1.45;;;;;;;;;;5070278;28;20043;-82
2022/10/31 05:51:37;;;;;;;0.55;0.32;;;;;;;;;;5056467;28;20025;-83
2022/10/31 05:54:03;;;;;;;1.52;1.10;;;;;;;;;;5059906;28;20041;-83
2022/10/31 05:56:30;;;;;;;0.00;0.00;;;;;;;;;;5071540;28;20111;-83
2022/10/31 05:58:56;;;;;;;2.83;0.80;;;;;;;;;;5068402;28;20151;-80
2022/10/31 06:01:22;;;;;;;0.30;0.20;;;;;;;;;;5068305;28;20078;-82
2022/10/31 06:03:49;;;;;;;2.72;0.50;;;;;;;;;;5071349;28;20382;-80
2022/10/31 06:06:15;;;;;;;0.65;0.17;;;;;;;;;;5068518;28;20431;-81
2022/10/31 06:08:41;;;;;;;1.15;0.85;;;;;;;;;;5068414;28;20048;-80
2022/10/31 06:11:08;;;;;;;0.88;0.47;;;;;;;;;;5083614;28;20025;-77
2022/10/31 06:13:37;;;;;;;0.30;0.30;;;;;;;;;;5083747;28;20111;-80
2022/10/31 06:16:03;;;;;;;1.13;0.60;;;;;;;;;;5075934;28;20033;-79
2022/10/31 06:18:30;;;;;;;0.00;0.00;;;;;;;;;;5071573;28;20031;-81
2022/10/31 06:20:56;;;;;;;0.00;0.00;;;;;;;;;;5064126;28;20027;-79
2022/10/31 06:23:22;;;;;;;0.38;0.38;;;;;;;;;;5066017;28;20378;-78
2022/10/31 06:25:51;;;;;;;1.08;0.43;;;;;;;;;;5067566;28;20059;-80
2022/10/31 06:28:18;;;;;;;1.02;0.52;;;;;;;;;;5070869;28;20020;-81
2022/10/31 06:30:44;;;;;;;2.92;1.42;;;;;;;;;;5081654;28;20059;-83
2022/10/31 06:33:11;;;;;;;1.45;1.30;;;;;;;;;;5069263;28;20024;-80
2022/10/31 06:35:37;;;;;;;0.00;0.00;;;;;;;;;;5070182;28;20391;-82
2022/10/31 06:38:04;;;;;;;0.35;0.13;;;;;;;;;;5070137;28;20021;-81
2022/10/31 06:40:30;;;;;;;0.10;0.10;;;;;;;;;;5099017;28;20036;-80
2022/10/31 06:43:00;;;;;;;0.93;0.50;;;;;;;;;;5065591;28;20441;-81
2022/10/31 06:45:26;;;;;;;0.65;0.22;;;;;;;;;;5066036;28;20031;-78
2022/10/31 06:47:56;;;;;;;0.85;0.60;;;;;;;;;;5070697;28;20032;-79
2022/10/31 06:50:23;;;;;;;2.15;0.60;;;;;;;;;;5070185;28;20031;-80
2022/10/31 06:52:53;;;;;;;0.00;0.00;;;;;;;;;;5077291;28;20056;-79
2022/10/31 06:55:22;;;;;;;1.15;0.80;;;;;;;;;;5078901;28;20306;-79
2022/10/31 06:57:59;;;;;;;0.20;0.20;;;;;;;;;;5087310;28;20036;-75
2022/10/31 07:00:29;;;;;;;0.43;0.25;;;;;;;;;;5086199;28;20019;-76
2022/10/31 07:02:56;;;;;;;1.25;0.90;;;;;;;;;;5082079;28;20074;-75
2022/10/31 07:05:23;;;;;;;6.13;3.75;;;;;;;;;;5092535;28;20043;-77
2022/10/31 07:07:52;;;;;;;0.10;0.10;;;;;;;;;;5094599;28;20032;-77
2022/10/31 07:10:19;;;;;;;0.70;0.50;;;;;;;;;;5088237;28;20149;-81
2022/10/31 07:12:45;;;;;;;3.42;1.65;;;;;;;;;;5073189;28;20062;-78
2022/10/31 07:15:11;;;;;;;0.00;0.00;;;;;;;;;;5083102;28;20410;-78
2022/10/31 07:17:40;;;;;;;0.00;0.00;;;;;;;;;;5067641;28;20048;-79
2022/10/31 07:20:07;;;;;;;2.20;1.00;;;;;;;;;;5066969;28;20394;-78
2022/10/31 07:22:37;;;;;;;1.02;0.93;;;;;;;;;;5075333;28;20036;-78
2022/10/31 07:25:03;;;;;;;0.00;0.00;;;;;;;;;;5085635;28;20085;-77
2022/10/31 07:27:39;;;;;;;0.17;0.17;;;;;;;;;;5060584;28;20389;-75
2022/10/31 07:30:06;;;;;;;1.27;0.40;;;;;;;;;;5059479;28;20048;-76
2022/10/31 07:32:43;;;;;;;6.47;3.33;;;;;;;;;;5067666;28;20033;-78
2022/10/31 07:35:10;;;;;;;1.73;1.63;;;;;;;;;;5070871;28;20024;-78
2022/10/31 07:37:37;;;;;;;0.00;0.00;;;;;;;;;;5070642;28;20511;-76
2022/10/31 07:40:04;;;;;;;11.43;1.17;;;;;;;;;;5049581;28;20036;-76
2022/10/31 07:42:30;;;;;;;0.35;0.35;;;;;;;;;;5083890;28;20071;-76
2022/10/31 07:44:56;;;;;;;1.30;1.20;;;;;;;;;;5052977;28;20698;-78
2022/10/31 07:47:23;;;;;;;5.18;1.95;;;;;;;;;;5073142;28;20282;-77
2022/10/31 07:49:49;;;;;;;5.57;1.15;;;;;;;;;;5078212;28;20056;-77
2022/10/31 07:52:15;;;;;;;1.55;1.45;;;;;;;;;;5054240;28;20485;-80
2022/10/31 07:54:42;;;;;;;0.85;0.60;;;;;;;;;;5069876;28;20059;-77
2022/10/31 07:57:08;;;;;;;0.98;0.93;;;;;;;;;;5070602;28;20028;-75
2022/10/31 07:59:34;;;;;;;4.28;2.75;;;;;;;;;;5073781;28;20028;-77
2022/10/31 08:02:03;;;;;;;8.07;3.40;;;;;;;;;;5069607;28;20055;-75
2022/10/31 08:04:30;;;;;;;0.73;0.43;;;;;;;;;;5055745;28;20147;-77
2022/10/31 08:06:56;;;;;;;0.15;0.15;;;;;;;;;;5067439;28;20107;-78
2022/10/31 08:09:22;;;;;;;0.98;0.32;;;;;;;;;;5070375;28;20389;-77
2022/10/31 08:11:48;;;;;;;2.58;1.02;;;;;;;;;;5071126;28;20043;-78
2022/10/31 08:14:15;;;;;;;0.85;0.38;;;;;;;;;;5059703;28;20517;-76
2022/10/31 08:16:41;;;;;;;4.57;1.55;;;;;;;;;;5072670;28;20242;-76
2022/10/31 08:19:07;;;;;;;12.20;1.45;;;;;;;;;;5055040;28;20486;-78
2022/10/31 08:21:34;;;;;;;2.47;2.25;;;;;;;;;;5052376;28;20067;-77
2022/10/31 08:24:00;;;;;;;0.40;0.38;;;;;;;;;;5071618;28;20031;-76
2022/10/31 08:26:26;;;;;;;5.18;1.83;;;;;;;;;;5052608;28;20514;-77
2022/10/31 08:28:54;;;;;;;2.17;1.52;;;;;;;;;;5085241;28;20039;-77
2022/10/31 08:31:22;;;;;;;0.77;0.73;;;;;;;;;;5070685;28;20027;-75
2022/10/31 08:33:53;;;;;;;0.60;0.47;;;;;;;;;;5071812;28;20036;-75
2022/10/31 08:36:19;;;;;;;1.67;0.93;;;;;;;;;;5071806;28;20020;-76
2022/10/31 08:38:47;;;;;;;0.15;0.15;;;;;;;;;;5068814;28;20477;-75
2022/10/31 08:41:13;;;;;;;1.25;0.63;;;;;;;;;;5059619;28;20022;-75
2022/10/31 08:43:43;;;;;;;7.03;2.35;;;;;;;;;;5075828;28;20057;-75
2022/10/31 08:46:09;;;;;;;1.42;0.63;;;;;;;;;;5067431;28;20572;-75
2022/10/31 08:48:38;;;;;;;3.53;1.05;;;;;;;;;;5053756;28;20028;-74
2022/10/31 08:51:05;;;;;;;0.52;0.30;;;;;;;;;;5067175;28;20115;-74
2022/10/31 08:53:32;;;;;;;1.17;0.98;;;;;;;;;;5069385;28;20533;-75
2022/10/31 08:55:58;;;;;;;3.75;0.90;;;;;;;;;;5069987;28;20140;-75
2022/10/31 08:58:25;;;;;;;4.05;1.65;;;;;;;;;;5075416;28;20096;-77
2022/10/31 09:00:54;;;;;;;0.00;0.00;;;;;;;;;;5055298;28;20562;-76
2022/10/31 09:03:27;;;;;;;1.98;0.70;;;;;;;;;;5078981;28;20028;-77
2022/10/31 09:05:58;;;;;;;1.98;0.73;;;;;;;;;;5076104;28;20123;-75
2022/10/31 09:08:24;;;;;;;5.97;5.68;;;;;;;;;;5074067;28;20052;-76
2022/10/31 09:10:51;;;;;;;0.00;0.00;;;;;;;;;;5080365;28;20028;-76
2022/10/31 09:13:19;;;;;;;8.90;0.85;;;;;;;;;;5069245;28;20086;-75
2022/10/31 09:15:48;;;;;;;0.20;0.20;;;;;;;;;;5072777;28;20441;-76
2022/10/31 09:18:15;;;;;;;0.20;0.08;;;;;;;;;;5071677;28;20028;-76
2022/10/31 09:20:43;;;;;;;0.45;0.45;;;;;;;;;;5067993;28;20025;-76
2022/10/31 09:23:11;;;;;;;0.63;0.63;;;;;;;;;;5069868;28;20103;-78
2022/10/31 09:25:37;;;;;;;2.05;1.10;;;;;;;;;;5068245;28;20066;-76
2022/10/31 09:28:05;;;;;;;0.00;0.00;;;;;;;;;;5049221;28;20211;-76
2022/10/31 09:30:32;;;;;;;0.65;0.65;;;;;;;;;;5065732;28;20089;-76
2022/10/31 09:33:03;;;;;;;2.05;1.35;;;;;;;;;;5074069;28;20047;-77
2022/10/31 09:35:30;;;;;;;2.88;1.42;;;;;;;;;;5073111;28;20091;-78
2022/10/31 09:38:03;;;;;;;0.00;0.00;;;;;;;;;;5072876;28;20082;-78
2022/10/31 09:40:32;;;;;;;0.20;0.20;;;;;;;;;;5067463;28;20125;-76
2022/10/31 09:42:59;;;;;;;0.20;0.20;;;;;;;;;;5069200;28;20064;-77
2022/10/31 09:45:30;;;;;;;0.00;0.00;;;;;;;;;;5064884;28;20033;-76
2022/10/31 09:48:05;;;;;;;0.40;0.40;;;;;;;;;;5057825;28;20051;-75
2022/10/31 09:50:31;;;;;;;0.55;0.50;;;;;;;;;;5069572;28;20024;-79
2022/10/31 09:53:01;;;;;;;1.67;0.73;;;;;;;;;;5072930;28;20486;-77
2022/10/31 09:55:48;;;;;;;0.90;0.60;;;;;;;;;;5095860;28;20074;-78
2022/10/31 09:58:16;;;;;;;1.45;0.35;;;;;;;;;;5087878;28;20016;-76
2022/10/31 10:00:43;;;;;;;1.45;0.88;;;;;;;;;;5095512;28;20074;-81
2022/10/31 10:03:13;;;;;;;0.00;0.00;;;;;;;;;;5094716;28;20045;-80
2022/10/31 10:05:46;;;;;;;1.33;1.20;;;;;;;;;;5092820;28;20440;-79
2022/10/31 10:08:17;;;;;;;0.00;0.00;;;;;;;;;;5092004;28;20030;-78
2022/10/31 10:10:51;;;;;;;0.00;0.00;;;;;;;;;;5087612;28;20052;-78
2022/10/31 10:13:23;;;;;;;0.68;0.68;;;;;;;;;;5087345;28;20047;-77
2022/10/31 10:15:53;;;;;;;0.00;0.00;;;;;;;;;;5090598;28;20024;-79
2022/10/31 10:18:38;;;;;;;5.95;1.25;;;;;;;;;;5108413;28;20046;-77
2022/10/31 10:21:16;;;;;;;0.20;0.20;;;;;;;;;;5093211;28;20130;-79
2022/10/31 10:23:45;;;;;;;0.20;0.20;;;;;;;;;;5092227;28;20036;-79
2022/10/31 10:26:14;;;;;;;0.45;0.35;;;;;;;;;;5087419;28;20031;-79
2022/10/31 10:28:42;;;;;;;0.05;0.05;;;;;;;;;;5091838;28;20032;-80
2022/10/31 10:31:12;;;;;;;0.20;0.20;;;;;;;;;;5091845;28;20073;-79
2022/10/31 10:33:44;;;;;;;0.20;0.20;;;;;;;;;;5077695;28;20024;-79
2022/10/31 10:36:19;;;;;;;0.55;0.30;;;;;;;;;;5088379;28;20461;-78
2022/10/31 10:38:45;;;;;;;2.80;1.27;;;;;;;;;;5087145;28;20034;-79
2022/10/31 10:41:18;;;;;;;0.00;0.00;;;;;;;;;;5089646;28;20371;-81
2022/10/31 10:43:45;;;;;;;0.00;0.00;;;;;;;;;;5093037;28;20427;-79
2022/10/31 10:48:59;;;;;;;1.00;0.73;;;;;;;;;;5091979;28;20116;-77
2022/10/31 10:51:41;;;;;;;0.00;0.00;;;;;;;;;;5090967;28;20039;-80
2022/10/31 10:54:15;;;;;;;0.75;0.75;;;;;;;;;;5079856;28;20102;-79
2022/10/31 10:56:46;;;;;;;0.45;0.45;;;;;;;;;;5067467;28;20071;-78
2022/10/31 10:59:15;;;;;;;0.00;0.00;;;;;;;;;;5071672;28;20096;-79
2022/10/31 11:01:42;;;;;;;0.30;0.30;;;;;;;;;;5072507;28;20031;-79
2022/10/31 11:04:20;;;;;;;0.47;0.47;;;;;;;;;;5071057;28;20096;-78
2022/10/31 11:06:56;;;;;;;0.00;0.00;;;;;;;;;;5071798;28;20027;-79
2022/10/31 11:09:23;;;;;;;1.05;1.00;;;;;;;;;;5085868;28;20005;-80
2022/10/31 11:11:49;;;;;;;0.00;0.00;;;;;;;;;;5081651;28;20123;-77
2022/10/31 11:14:17;;;;;;;0.00;0.00;;;;;;;;;;5072310;28;20020;-79
2022/10/31 11:16:45;;;;;;;0.00;0.00;;;;;;;;;;5070497;28;20067;-78
2022/10/31 11:19:18;;;;;;;0.00;0.00;;;;;;;;;;5081044;28;20039;-78
2022/10/31 11:21:45;;;;;;;0.00;0.00;;;;;;;;;;5067620;28;20023;-77
2022/10/31 11:24:11;;;;;;;0.00;0.00;;;;;;;;;;5072799;28;20484;-79
2022/10/31 11:26:41;;;;;;;0.00;0.00;;;;;;;;;;5064577;28;20037;-77
2022/10/31 11:29:26;;;;;;;0.00;0.00;;;;;;;;;;5069571;28;20391;-80
2022/10/31 11:31:54;;;;;;;0.00;0.00;;;;;;;;;;5067251;28;20073;-78
2022/10/31 11:34:31;;;;;;;0.00;0.00;;;;;;;;;;5067950;28;20497;-78
2022/10/31 11:37:03;;;;;;;0.00;0.00;;;;;;;;;;5067625;28;20044;-79
2022/10/31 11:39:30;;;;;;;0.47;0.47;;;;;;;;;;5068321;28;20276;-78
2022/10/31 11:42:00;;;;;;;0.00;0.00;;;;;;;;;;5068781;28;20119;-77
2022/10/31 11:44:28;;;;;;;37.20;29.30;;;;;;;;;;5066037;28;20040;-76
2022/10/31 11:47:02;;;;;;;0.05;0.05;;;;;;;;;;5069113;28;20034;-78
2022/10/31 11:49:35;;;;;;;0.55;0.55;;;;;;;;;;5086101;28;20129;-78
2022/10/31 11:52:05;;;;;;;0.00;0.00;;;;;;;;;;5070119;28;20031;-80
2022/10/31 11:54:33;;;;;;;0.55;0.55;;;;;;;;;;5073985;28;20044;-77
2022/10/31 11:57:00;;;;;;;1.42;1.38;;;;;;;;;;5068119;28;20032;-78
2022/10/31 11:59:28;;;;;;;0.00;0.00;;;;;;;;;;5079137;28;20108;-77
2022/10/31 12:01:55;;;;;;;0.40;0.40;;;;;;;;;;5078201;28;20555;-79
2022/10/31 12:04:25;;;;;;;0.00;0.00;;;;;;;;;;5073359;28;20378;-78
2022/10/31 12:06:53;;;;;;;5.82;5.47;;;;;;;;;;5069851;28;20021;-79
2022/10/31 12:09:21;;;;;;;0.52;0.52;;;;;;;;;;5073067;28;20029;-78
2022/10/31 12:12:11;;;;;;;0.90;0.80;;;;;;;;;;5065743;28;20017;-77
2022/10/31 12:14:40;;;;;;;0.00;0.00;;;;;;;;;;5072049;28;20490;-78
2022/10/31 12:17:13;;;;;;;0.47;0.47;;;;;;;;;;5067717;28;20029;-77
2022/10/31 12:19:43;;;;;;;2.45;2.35;;;;;;;;;;5069732;28;20025;-77
2022/10/31 12:22:32;;;;;;;0.00;0.00;;;;;;;;;;5102502;28;20126;-77
2022/10/31 12:25:03;;;;;;;0.10;0.10;;;;;;;;;;5063926;28;20021;-77
2022/10/31 12:27:36;;;;;;;0.35;0.35;;;;;;;;;;5069092;28;20111;-76
2022/10/31 12:30:13;;;;;;;0.00;0.00;;;;;;;;;;5066973;28;20117;-77
2022/10/31 12:32:43;;;;;;;0.13;0.13;;;;;;;;;;5070858;28;20020;-77
2022/10/31 12:35:15;;;;;;;0.38;0.38;;;;;;;;;;5067628;28;20075;-76
2022/10/31 12:37:51;;;;;;;0.00;0.00;;;;;;;;;;5069459;28;20183;-75
2022/10/31 12:40:36;;;;;;;0.10;0.05;;;;;;;;;;5071969;28;20035;-74
2022/10/31 12:43:21;;;;;;;5.35;5.05;;;;;;;;;;5068080;28;20025;-75
2022/10/31 12:46:14;;;;;;;0.00;0.00;;;;;;;;;;5065375;28;20033;-76
2022/10/31 12:48:44;;;;;;;0.00;0.00;;;;;;;;;;5044887;28;20033;-76
2022/10/31 12:51:11;;;;;;;0.20;0.20;;;;;;;;;;5063610;28;20383;-75
2022/10/31 12:53:43;;;;;;;1.40;1.33;;;;;;;;;;5068820;28;20131;-75
2022/10/31 12:56:22;;;;;;;1.65;1.55;;;;;;;;;;5053314;28;20473;-75
2022/10/31 12:59:00;;;;;;;1.33;1.33;;;;;;;;;;5055370;28;20119;-76
2022/10/31 13:01:30;;;;;;;0.43;0.43;;;;;;;;;;5057249;28;20029;-75
2022/10/31 13:04:01;;;;;;;0.80;0.80;;;;;;;;;;5055949;28;20056;-74
2022/10/31 13:06:39;;;;;;;0.08;0.08;;;;;;;;;;5074703;28;20028;-75
2022/10/31 13:09:11;;;;;;;3.17;3.03;;;;;;;;;;5074027;28;20440;-76
2022/10/31 13:11:40;;;;;;;0.22;0.22;;;;;;;;;;5075194;28;20055;-75
2022/10/31 13:14:08;;;;;;;0.08;0.08;;;;;;;;;;5073230;28;20048;-75
2022/10/31 13:16:39;;;;;;;0.65;0.65;;;;;;;;;;5074347;28;20060;-75
2022/10/31 13:19:05;;;;;;;0.00;0.00;;;;;;;;;;5078535;28;20445;-74
2022/10/31 13:21:36;;;;;;;0.05;0.05;;;;;;;;;;5055645;28;20021;-75
2022/10/31 13:24:05;;;;;;;0.00;0.00;;;;;;;;;;5074898;28;20086;-74
2022/10/31 13:26:57;;;;;;;0.00;0.00;;;;;;;;;;5074404;28;20027;-75
2022/10/31 13:29:29;;;;;;;0.00;0.00;;;;;;;;;;5070048;28;20037;-75
2022/10/31 13:31:56;;;;;;;0.00;0.00;;;;;;;;;;5076398;28;20033;-76
2022/10/31 13:34:27;;;;;;;3.42;1.17;;;;;;;;;;5074538;28;20025;-76
2022/10/31 13:37:00;;;;;;;0.00;0.00;;;;;;;;;;5058872;28;20073;-76
2022/10/31 13:39:29;;;;;;;0.00;0.00;;;;;;;;;;5094457;28;20033;-74
2022/10/31 13:42:03;;;;;;;0.00;0.00;;;;;;;;;;5068799;28;20021;-76
2022/10/31 13:44:30;;;;;;;0.32;0.32;;;;;;;;;;5055937;28;20032;-75
2022/10/31 13:46:58;;;;;;;0.00;0.00;;;;;;;;;;5069104;28;20032;-75
2022/10/31 13:49:30;;;;;;;0.75;0.75;;;;;;;;;;5053087;28;20021;-75
2022/10/31 13:52:12;;;;;;;0.00;0.00;;;;;;;;;;5072304;28;20028;-75
2022/10/31 13:54:39;;;;;;;0.20;0.20;;;;;;;;;;5074458;28;20076;-75
2022/10/31 13:57:19;;;;;;;0.00;0.00;;;;;;;;;;5053784;28;20082;-75
2022/10/31 14:00:09;;;;;;;1.17;1.17;;;;;;;;;;5056935;28;20021;-75
2022/10/31 14:02:36;;;;;;;0.55;0.55;;;;;;;;;;5040553;28;20071;-76
2022/10/31 14:05:05;;;;;;;3.13;3.03;;;;;;;;;;5033019;28;20033;-75
2022/10/31 14:07:31;;;;;;;3.20;2.47;;;;;;;;;;5053101;28;20486;-75
2022/10/31 14:09:58;;;;;;;6.25;5.60;;;;;;;;;;5080330;28;20050;-75
2022/10/31 14:12:36;;;;;;;1.27;0.95;;;;;;;;;;5075952;28;20490;-74
2022/10/31 14:15:14;;;;;;;5.53;5.13;;;;;;;;;;5093770;28;20470;-75
2022/10/31 14:17:52;;;;;;;1.58;1.52;;;;;;;;;;5093874;28;20016;-75
2022/10/31 14:20:33;;;;;;;10.57;9.25;;;;;;;;;;5093978;28;20105;-76
2022/10/31 14:23:10;;;;;;;14.60;8.10;;;;;;;;;;5093666;28;20016;-75
2022/10/31 14:25:37;;;;;;;3.60;3.30;;;;;;;;;;5093749;28;20031;-75
2022/10/31 14:28:18;;;;;;;12.50;9.88;;;;;;;;;;5066595;28;20029;-75
2022/10/31 14:30:52;;;;;;;10.65;5.18;;;;;;;;;;5055500;28;20039;-75
2022/10/31 14:33:20;;;;;;;2.85;2.67;;;;;;;;;;5073486;28;20555;-75
2022/10/31 14:36:06;;;;;;;3.70;3.35;;;;;;;;;;5073266;28;20029;-75
2022/10/31 14:38:49;;;;;;;6.65;5.53;;;;;;;;;;5014982;28;20176;-75
2022/10/31 14:41:29;;;;;;;6.65;3.65;;;;;;;;;;5057359;28;20495;-75
2022/10/31 14:44:08;;;;;;;8.57;3.63;;;;;;;;;;5068782;28;20031;-75
2022/10/31 14:46:44;;;;;;;29.85;1.40;;;;;;;;;;5055108;28;20033;-75
2022/10/31 14:49:14;;;;;;;2.78;2.33;;;;;;;;;;5052480;28;20029;-75
2022/10/31 14:51:43;;;;;;;4.78;4.38;;;;;;;;;;5078657;28;20051;-75
2022/10/31 14:54:13;;;;;;;8.77;5.00;;;;;;;;;;5077403;28;20048;-75
2022/10/31 14:56:44;;;;;;;9.85;8.85;;;;;;;;;;5070012;28;20498;-75
2022/10/31 14:59:14;;;;;;;12.10;8.18;;;;;;;;;;5058220;28;20033;-75